createdAt,value
2022-12-09T00:00:36.002Z,4.03
2022-12-09T00:04:38.368Z,4.00
2022-12-09T00:08:40.683Z,3.96
2022-12-09T00:12:43.068Z,3.82
2022-12-09T00:16:45.163Z,3.66
2022-12-09T00:20:47.452Z,3.68
2022-12-09T00:24:49.461Z,3.71
2022-12-09T00:28:52.452Z,3.70
2022-12-09T00:32:54.809Z,3.72
2022-12-09T00:36:57.062Z,3.59
2022-12-09T00:40:59.075Z,3.50
2022-12-09T00:45:01.292Z,3.39
2022-12-09T00:49:04.562Z,3.51
2022-12-09T00:53:06.628Z,3.59
2022-12-09T00:57:08.849Z,3.62
2022-12-09T01:01:12.452Z,3.64
2022-12-09T01:05:14.980Z,3.61
2022-12-09T01:09:17.897Z,3.58
2022-12-09T01:13:20.110Z,3.63
2022-12-09T01:17:22.712Z,3.75
2022-12-09T01:21:25.938Z,3.79
2022-12-09T01:25:28.384Z,3.73
2022-12-09T01:29:30.453Z,3.75
2022-12-09T01:33:32.751Z,3.74
2022-12-09T01:37:36.682Z,3.70
2022-12-09T01:41:38.855Z,3.72
2022-12-09T01:45:42.904Z,3.80
2022-12-09T01:49:48.231Z,3.80
2022-12-09T01:53:51.502Z,3.80
2022-12-09T01:57:54.939Z,3.76
2022-12-09T02:02:00.834Z,3.80
2022-12-09T02:06:03.253Z,3.82
2022-12-09T02:10:11.307Z,3.82
2022-12-09T02:14:31.519Z,3.75
2022-12-09T02:18:52.869Z,3.74
2022-12-09T02:23:07.507Z,3.80
2022-12-09T02:27:32.540Z,3.84
2022-12-09T02:31:43.683Z,3.77
2022-12-09T02:35:58.026Z,3.60
2022-12-09T02:40:24.950Z,3.63
2022-12-09T02:44:27.879Z,3.69
2022-12-09T02:48:36.363Z,3.67
2022-12-09T02:52:42.196Z,3.51
2022-12-09T02:56:55.084Z,3.41
2022-12-09T03:00:58.966Z,3.37
2022-12-09T03:05:23.994Z,3.20
2022-12-09T03:09:35.086Z,3.11
2022-12-09T03:13:48.109Z,3.03
2022-12-09T03:17:53.399Z,3.02
2022-12-09T03:22:03.381Z,3.09
2022-12-09T03:26:06.728Z,3.08
2022-12-09T03:30:11.146Z,3.09
2022-12-09T03:34:18.327Z,3.18
2022-12-09T03:38:22.854Z,3.27
2022-12-09T03:42:36.226Z,3.31
2022-12-09T03:46:38.747Z,3.41
2022-12-09T03:50:52.647Z,3.45
2022-12-09T03:55:01.695Z,3.45
2022-12-09T03:59:07.913Z,3.54
2022-12-09T04:03:12.883Z,3.59
2022-12-09T04:07:15.363Z,3.57
2022-12-09T04:11:17.721Z,3.54
2022-12-09T04:15:20.052Z,3.51
2022-12-09T04:19:22.150Z,3.55
2022-12-09T04:23:24.492Z,3.49
2022-12-09T04:27:26.867Z,3.48
2022-12-09T04:31:29.154Z,3.30
2022-12-09T04:35:31.250Z,3.21
2022-12-09T04:39:33.759Z,3.25
2022-12-09T04:43:36.397Z,3.33
2022-12-09T04:47:38.600Z,3.29
2022-12-09T04:51:40.990Z,3.15
2022-12-09T04:55:43.116Z,3.16
2022-12-09T04:59:45.824Z,3.06
2022-12-09T05:03:50.195Z,2.82
2022-12-09T05:07:52.600Z,2.59
2022-12-09T05:11:58.124Z,2.55
2022-12-09T05:16:01.960Z,2.65
2022-12-09T05:20:05.204Z,2.77
2022-12-09T05:24:07.797Z,2.83
2022-12-09T05:28:10.054Z,2.88
2022-12-09T05:32:12.501Z,2.90
2022-12-09T05:36:17.072Z,2.96
2022-12-09T05:40:19.476Z,3.08
2022-12-09T05:44:23.248Z,3.19
2022-12-09T05:48:25.673Z,3.24
2022-12-09T05:52:27.953Z,3.14
2022-12-09T05:56:30.979Z,2.92
2022-12-09T06:00:33.090Z,2.67
2022-12-09T06:04:35.327Z,2.54
2022-12-09T06:08:38.753Z,2.69
2022-12-09T06:12:41.694Z,2.82
2022-12-09T06:16:44.066Z,2.98
2022-12-09T06:20:46.643Z,3.08
2022-12-09T06:24:52.746Z,3.10
2022-12-09T06:28:59.787Z,2.95
2022-12-09T06:33:02.358Z,2.81
2022-12-09T06:37:06.925Z,2.76
2022-12-09T06:41:11.257Z,2.85
2022-12-09T06:45:14.042Z,2.81
2022-12-09T06:49:16.649Z,2.75
2022-12-09T06:53:18.859Z,2.81
2022-12-09T06:57:21.208Z,2.79
2022-12-09T07:01:25.458Z,2.87
2022-12-09T07:05:28.790Z,3.06
2022-12-09T07:09:31.032Z,3.20
2022-12-09T07:13:33.240Z,3.04
2022-12-09T07:17:35.432Z,2.94
2022-12-09T07:21:38.358Z,3.05
2022-12-09T07:25:40.743Z,3.02
2022-12-09T07:29:43.294Z,3.10
2022-12-09T07:33:45.537Z,3.23
2022-12-09T07:37:48.159Z,3.34
2022-12-09T07:41:55.720Z,3.58
2022-12-09T07:45:58.118Z,3.64
2022-12-09T07:50:06.196Z,3.75
2022-12-09T07:54:17.117Z,3.73
2022-12-09T07:58:19.272Z,3.58
2022-12-09T08:02:21.483Z,3.63
2022-12-09T08:06:26.224Z,3.71
2022-12-09T08:10:29.149Z,3.81
2022-12-09T08:14:31.600Z,3.69
2022-12-09T08:18:34.954Z,3.62
2022-12-09T08:22:37.691Z,3.74
2022-12-09T08:26:41.143Z,3.95
2022-12-09T08:30:43.569Z,3.84
2022-12-09T08:34:46.062Z,3.77
2022-12-09T08:38:48.788Z,3.75
2022-12-09T08:42:51.302Z,3.77
2022-12-09T08:46:53.777Z,3.77
2022-12-09T08:50:56.170Z,3.51
2022-12-09T08:54:58.540Z,3.35
2022-12-09T08:59:00.794Z,3.34
2022-12-09T09:03:03.171Z,3.13
2022-12-09T09:07:05.901Z,2.97
2022-12-09T09:11:14.274Z,3.19
2022-12-09T09:15:17.528Z,3.31
2022-12-09T09:19:22.661Z,3.42
2022-12-09T09:23:26.223Z,3.30
2022-12-09T09:27:28.500Z,3.13
2022-12-09T09:31:30.596Z,3.08
2022-12-09T09:35:33.620Z,3.03
2022-12-09T09:39:35.655Z,3.16
2022-12-09T09:43:39.004Z,3.42
2022-12-09T09:47:46.282Z,3.45
2022-12-09T09:51:49.241Z,3.55
2022-12-09T09:56:07.801Z,3.64
2022-12-09T10:00:32.658Z,3.80
2022-12-09T10:05:04.894Z,3.71
2022-12-09T10:09:32.141Z,3.75
2022-12-09T10:14:09.984Z,3.81
2022-12-09T10:18:40.436Z,3.74
2022-12-09T10:22:52.267Z,3.72
2022-12-09T10:27:06.350Z,3.72
2022-12-09T10:31:11.093Z,3.78
2022-12-09T10:35:28.078Z,3.86
2022-12-09T10:39:31.117Z,3.84
2022-12-09T10:43:39.561Z,3.58
2022-12-09T10:47:49.904Z,3.48
2022-12-09T10:51:54.092Z,3.48
2022-12-09T10:55:58.883Z,3.49
2022-12-09T11:00:19.839Z,3.75
2022-12-09T11:04:40.487Z,4.13
2022-12-09T11:08:50.512Z,3.77
2022-12-09T11:12:56.035Z,3.56
2022-12-09T11:17:41.486Z,3.65
2022-12-09T11:21:43.859Z,3.70
2022-12-09T11:25:57.755Z,3.91
2022-12-09T11:30:14.311Z,4.03
2022-12-09T11:34:27.334Z,3.97
2022-12-09T11:38:46.219Z,3.89
2022-12-09T11:42:53.585Z,3.65
2022-12-09T11:47:11.259Z,3.55
2022-12-09T11:51:35.215Z,3.43
2022-12-09T11:55:51.912Z,3.17
2022-12-09T11:59:59.742Z,3.00
2022-12-09T12:04:07.756Z,2.99
2022-12-09T12:08:25.688Z,2.97
2022-12-09T12:12:34.859Z,2.68
2022-12-09T12:16:52.486Z,2.58
2022-12-09T12:21:15.870Z,2.57
2022-12-09T12:25:36.122Z,2.62
2022-12-09T12:29:58.452Z,2.51
2022-12-09T12:34:28.278Z,2.47
2022-12-09T12:38:37.083Z,2.51
2022-12-09T12:43:11.241Z,2.35
2022-12-09T12:47:25.520Z,2.35
2022-12-09T12:51:54.757Z,2.27
2022-12-09T12:56:14.649Z,2.17
2022-12-09T13:00:23.963Z,2.22
2022-12-09T13:04:48.967Z,2.35
2022-12-09T13:09:03.088Z,2.52
2022-12-09T13:13:17.383Z,2.56
2022-12-09T13:17:25.298Z,2.53
2022-12-09T13:21:27.348Z,2.51
2022-12-09T13:25:39.029Z,2.59
2022-12-09T13:29:54.555Z,2.62
2022-12-09T13:34:18.246Z,2.75
2022-12-09T13:38:36.345Z,2.78
2022-12-09T13:43:09.232Z,2.81
2022-12-09T13:47:24.365Z,2.88
2022-12-09T13:51:27.493Z,2.98
2022-12-09T13:55:35.562Z,2.74
2022-12-09T13:59:44.490Z,2.45
2022-12-09T14:04:01.426Z,2.29
2022-12-09T14:08:16.246Z,2.31
2022-12-09T14:12:28.168Z,2.31
2022-12-09T14:16:30.143Z,2.19
2022-12-09T14:20:36.231Z,2.09
2022-12-09T14:24:38.629Z,2.08
2022-12-09T14:28:52.166Z,1.99
2022-12-09T14:32:55.714Z,1.96
2022-12-09T14:37:32.953Z,2.10
2022-12-09T14:41:44.656Z,2.23
2022-12-09T14:46:06.464Z,2.47
2022-12-09T14:50:15.520Z,2.61
2022-12-09T14:54:23.713Z,2.62
2022-12-09T14:58:27.456Z,2.58
2022-12-09T15:02:31.758Z,2.61
2022-12-09T15:06:34.886Z,2.59
2022-12-09T15:10:38.311Z,2.54
2022-12-09T15:14:41.635Z,2.42
2022-12-09T15:18:45.706Z,2.38
2022-12-09T15:22:53.188Z,2.39
2022-12-09T15:26:58.778Z,2.36
2022-12-09T15:31:03.911Z,2.43
2022-12-09T15:35:17.959Z,2.43
2022-12-09T15:39:25.670Z,2.35
2022-12-09T15:43:28.120Z,2.32
2022-12-09T15:47:35.828Z,2.36
2022-12-09T15:51:39.125Z,2.23
2022-12-09T15:55:50.399Z,2.23
2022-12-09T15:59:57.977Z,2.21
2022-12-09T16:04:01.645Z,2.16
2022-12-09T16:08:03.795Z,2.17
2022-12-09T16:12:24.902Z,2.20
2022-12-09T16:16:51.304Z,2.22
2022-12-09T16:21:24.796Z,2.15
2022-12-09T16:25:29.790Z,2.13
2022-12-09T16:29:35.418Z,2.09
2022-12-09T16:33:39.449Z,2.07
2022-12-09T16:38:16.004Z,2.08
2022-12-09T16:42:40.750Z,2.08
2022-12-09T16:46:43.832Z,2.06
2022-12-09T16:50:57.035Z,2.00
2022-12-09T16:54:59.448Z,1.97
2022-12-09T16:59:01.482Z,1.92
2022-12-09T17:03:09.196Z,1.93
2022-12-09T17:07:11.356Z,1.83
2022-12-09T17:11:14.550Z,1.67
2022-12-09T17:15:19.108Z,1.51
2022-12-09T17:19:23.959Z,1.44
2022-12-09T17:23:25.958Z,1.35
2022-12-09T17:27:28.021Z,1.28
2022-12-09T17:31:30.294Z,1.16
2022-12-09T17:35:37.811Z,1.09
2022-12-09T17:39:39.759Z,1.06
2022-12-09T17:43:42.983Z,1.05
2022-12-09T17:47:44.959Z,0.98
2022-12-09T17:51:47.399Z,0.92
2022-12-09T17:55:49.426Z,0.85
2022-12-09T17:59:51.437Z,0.82
2022-12-09T18:04:02.621Z,0.94
2022-12-09T18:08:08.440Z,1.09
2022-12-09T18:12:10.488Z,1.22
2022-12-09T18:16:13.350Z,1.29
2022-12-09T18:20:15.459Z,1.40
2022-12-09T18:24:18.211Z,1.53
2022-12-09T18:28:20.374Z,1.57
2022-12-09T18:32:22.446Z,1.58
2022-12-09T18:36:27.565Z,1.59
2022-12-09T18:40:29.593Z,1.64
2022-12-09T18:44:31.578Z,1.67
2022-12-09T18:48:33.586Z,1.73
2022-12-09T18:52:36.836Z,1.70
2022-12-09T18:56:38.829Z,1.72
2022-12-09T19:00:40.859Z,1.73
2022-12-09T19:04:42.992Z,1.62
2022-12-09T19:08:45.039Z,1.69
2022-12-09T19:12:49.740Z,1.77
2022-12-09T19:16:54.008Z,1.74
2022-12-09T19:20:56.012Z,1.50
2022-12-09T19:24:58.070Z,1.21
2022-12-09T19:29:07.658Z,0.85
2022-12-09T19:33:09.736Z,0.79
2022-12-09T19:37:12.512Z,0.87
2022-12-09T19:41:14.557Z,0.86
2022-12-09T19:45:16.683Z,1.00
2022-12-09T19:49:20.272Z,1.06
2022-12-09T19:53:22.280Z,1.15
2022-12-09T19:57:24.269Z,1.25
2022-12-09T20:01:29.049Z,1.31
2022-12-09T20:05:31.082Z,1.36
2022-12-09T20:09:33.105Z,1.38
2022-12-09T20:13:35.247Z,1.29
2022-12-09T20:17:37.243Z,1.24
2022-12-09T20:21:40.418Z,1.21
2022-12-09T20:25:42.490Z,1.34
2022-12-09T20:29:44.474Z,1.27
2022-12-09T20:33:47.524Z,1.03
2022-12-09T20:37:49.616Z,0.80
2022-12-09T20:41:51.703Z,0.78
2022-12-09T20:45:53.759Z,0.87
2022-12-09T20:49:55.823Z,0.91
2022-12-09T20:53:58.553Z,0.96
2022-12-09T20:58:00.659Z,1.10
2022-12-09T21:02:02.767Z,1.16
2022-12-09T21:06:05.428Z,1.14
2022-12-09T21:10:08.004Z,1.10
2022-12-09T21:14:11.448Z,1.09
2022-12-09T21:18:13.486Z,1.19
2022-12-09T21:22:15.525Z,1.20
2022-12-09T21:26:18.814Z,1.28
2022-12-09T21:30:20.924Z,1.28
2022-12-09T21:34:24.563Z,1.05
2022-12-09T21:38:26.779Z,0.93
2022-12-09T21:42:28.884Z,1.04
2022-12-09T21:46:33.803Z,1.18
2022-12-09T21:50:35.810Z,1.27
2022-12-09T21:54:38.193Z,1.37
2022-12-09T21:58:40.180Z,1.45
2022-12-09T22:02:44.174Z,1.48
2022-12-09T22:06:48.593Z,1.46
2022-12-09T22:10:50.559Z,1.36
2022-12-09T22:14:52.563Z,1.25
2022-12-09T22:18:57.103Z,1.48
2022-12-09T22:22:59.254Z,1.59
2022-12-09T22:27:01.319Z,1.59
2022-12-09T22:31:21.782Z,1.50
2022-12-09T22:35:23.763Z,1.44
2022-12-09T22:39:25.806Z,1.41
2022-12-09T22:43:31.456Z,1.33
2022-12-09T22:47:37.046Z,1.28
2022-12-09T22:51:39.723Z,1.27
2022-12-09T22:55:47.897Z,1.23
2022-12-09T22:59:49.896Z,1.24
2022-12-09T23:03:53.569Z,1.17
2022-12-09T23:07:55.594Z,1.04
2022-12-09T23:11:57.704Z,1.00
2022-12-09T23:16:01.192Z,0.91
2022-12-09T23:20:03.430Z,0.91
2022-12-09T23:24:10.280Z,0.85
2022-12-09T23:28:12.290Z,0.92
2022-12-09T23:32:14.282Z,1.01
2022-12-09T23:36:22.764Z,1.04
2022-12-09T23:40:24.809Z,1.01
2022-12-09T23:44:26.816Z,0.89
2022-12-09T23:48:29.044Z,0.85
2022-12-09T23:52:31.056Z,0.82
2022-12-09T23:56:38.408Z,0.86
